Time;durP1;ratioP1;P1;durP2;ratioP2;P2;SDS_P1;SDS_P2;PMS_P1;PMS_P2;Temp;Humidity;BMP_temperature;BMP_pressure;BME280_temperature;BME280_humidity;BME280_pressure;Samples;Min_cycle;Max_cycle;Signal;HPM_P1;HPM_P2
2023/05/17 00:00:12;;;;;;;1.70;0.55;;;9.00;99.90;;;7.62;84.82;101218.69;4994357;28;21682;-76
2023/05/17 00:02:37;;;;;;;1.10;0.35;;;9.00;99.90;;;7.68;84.93;101227.22;4980265;28;20038;-75
2023/05/17 00:05:04;;;;;;;1.08;0.63;;;9.10;99.90;;;7.78;85.24;101225.25;4997598;28;20526;-75
2023/05/17 00:07:30;;;;;;;2.72;0.95;;;9.10;99.90;;;7.86;84.83;101225.00;4995716;28;20033;-75
2023/05/17 00:09:55;;;;;;;2.67;0.98;;;9.20;99.90;;;7.91;85.09;101221.38;5000474;28;20049;-76
2023/05/17 00:12:21;;;;;;;0.80;0.55;;;9.20;99.90;;;7.96;84.91;101226.50;4997396;28;20045;-76
2023/05/17 00:14:47;;;;;;;1.73;1.02;;;9.30;99.90;;;8.02;84.74;101232.41;4984141;28;20189;-75
2023/05/17 00:17:13;;;;;;;0.70;0.70;;;9.40;99.90;;;8.06;85.04;101219.25;5001408;28;20041;-75
2023/05/17 00:19:38;;;;;;;0.22;0.20;;;9.40;99.90;;;8.08;85.00;101230.53;4999303;28;20034;-75
2023/05/17 00:22:04;;;;;;;0.60;0.40;;;9.40;99.90;;;8.10;85.00;101226.09;4991446;28;20431;-75
2023/05/17 00:24:30;;;;;;;1.33;0.30;;;9.50;99.90;;;8.13;85.22;101226.88;5000320;28;20065;-75
2023/05/17 00:26:56;;;;;;;1.67;0.52;;;9.50;99.90;;;8.17;84.96;101230.28;4992498;28;20054;-75
2023/05/17 00:29:21;;;;;;;1.45;0.32;;;9.50;99.90;;;8.23;84.69;101232.75;4983300;28;20545;-75
2023/05/17 00:31:47;;;;;;;0.45;0.22;;;9.60;99.90;;;8.28;84.34;101236.06;5014490;28;20030;-76
2023/05/17 00:34:13;;;;;;;0.82;0.32;;;9.60;99.90;;;8.33;84.62;101238.56;4999914;28;20034;-75
2023/05/17 00:36:38;;;;;;;1.20;0.55;;;9.60;99.90;;;8.32;83.91;101221.97;4990847;28;20041;-75
2023/05/17 00:39:04;;;;;;;0.80;0.50;;;9.70;99.90;;;8.37;84.11;101225.31;4997843;28;20137;-75
2023/05/17 00:41:30;;;;;;;1.33;0.28;;;9.70;99.90;;;8.38;84.42;101221.78;4998891;28;20052;-75
2023/05/17 00:43:56;;;;;;;5.00;0.35;;;9.70;99.90;;;8.40;84.48;101225.25;4999963;28;20113;-75
2023/05/17 00:46:21;;;;;;;0.47;0.30;;;9.70;99.90;;;8.38;84.10;101221.78;4988791;28;20526;-75
2023/05/17 00:48:47;;;;;;;1.17;0.80;;;9.70;99.90;;;8.42;83.72;101227.81;4997737;28;20041;-76
2023/05/17 00:51:15;;;;;;;1.20;0.55;;;9.70;99.90;;;8.44;84.30;101219.91;5001310;28;20040;-76
2023/05/17 00:53:41;;;;;;;1.65;0.68;;;9.70;99.90;;;8.47;84.11;101225.09;4988868;28;20043;-76
2023/05/17 00:56:08;;;;;;;0.50;0.30;;;9.80;99.90;;;8.51;83.99;101218.81;4996194;28;20047;-75
2023/05/17 00:58:35;;;;;;;0.57;0.32;;;9.80;99.90;;;8.54;84.21;101226.59;4992878;28;20517;-76
2023/05/17 01:01:02;;;;;;;1.23;0.65;;;9.90;99.90;;;8.59;83.99;101208.94;4997316;28;20084;-75
2023/05/17 01:03:28;;;;;;;3.90;0.55;;;9.90;99.90;;;8.61;83.77;101207.13;4997290;28;20129;-76
2023/05/17 01:05:54;;;;;;;0.40;0.20;;;9.90;99.90;;;8.60;84.13;101206.28;5001146;28;20441;-75
2023/05/17 01:08:20;;;;;;;4.03;0.65;;;9.90;99.90;;;8.66;83.48;101205.25;4997809;28;20061;-75
2023/05/17 01:11:00;;;;;;;7.68;1.35;;;10.00;99.90;;;8.71;83.89;101212.97;4997423;28;20165;-75
2023/05/17 01:13:37;;;;;;;0.68;0.45;;;10.00;99.90;;;8.70;83.67;101206.00;5019561;28;20597;-76
2023/05/17 01:16:31;;;;;;;1.85;0.93;;;10.00;99.90;;;8.73;83.45;101204.13;4995644;28;20038;-76
2023/05/17 01:19:33;;;;;;;4.22;1.20;;;10.00;99.90;;;8.74;83.60;101208.47;5017009;28;20120;-76
2023/05/17 01:22:27;;;;;;;0.70;0.40;;;10.10;99.90;;;8.76;83.68;101203.19;5018754;28;20107;-75
2023/05/17 01:25:36;;;;;;;0.52;0.38;;;10.00;99.90;;;8.76;83.29;101205.81;5028238;28;20513;-75
2023/05/17 01:28:03;;;;;;;1.33;0.95;;;10.10;99.90;;;8.78;84.08;101215.34;5014275;28;20597;-75
2023/05/17 01:30:32;;;;;;;0.63;0.20;;;10.10;99.90;;;8.77;83.46;101212.78;5009512;28;20546;-75
2023/05/17 01:32:59;;;;;;;0.43;0.30;;;10.10;99.90;;;8.77;83.25;101211.00;5018377;28;20037;-75
2023/05/17 01:35:25;;;;;;;0.15;0.15;;;10.10;99.90;;;8.81;83.43;101217.91;5010741;28;20057;-75
2023/05/17 01:37:53;;;;;;;1.23;0.63;;;10.10;99.90;;;8.81;83.49;101223.16;5006682;28;20041;-76
2023/05/17 01:40:19;;;;;;;2.67;0.30;;;10.10;99.90;;;8.83;83.03;101223.97;5003741;28;20096;-76
2023/05/17 01:43:08;;;;;;;0.28;0.28;;;10.10;99.90;;;8.83;83.15;101220.44;4999857;28;20101;-76
2023/05/17 01:45:45;;;;;;;0.85;0.45;;;10.10;99.90;;;8.87;83.37;101223.84;4998815;28;20513;-75
2023/05/17 01:48:30;;;;;;;1.55;0.30;;;10.10;99.90;;;8.89;83.30;101232.53;4997551;28;20037;-76
2023/05/17 01:50:58;;;;;;;0.70;0.45;;;10.20;99.90;;;8.92;83.23;101232.44;4989258;28;20029;-75
2023/05/17 01:53:38;;;;;;;2.33;0.98;;;10.50;99.90;;;8.92;83.57;101233.31;4998272;28;20037;-75
2023/05/17 01:56:09;;;;;;;0.45;0.38;;;10.20;99.90;;;8.96;83.38;101244.56;4998841;28;20049;-75
2023/05/17 01:58:47;;;;;;;6.00;1.15;;;10.20;99.90;;;8.98;84.09;101253.25;4998375;28;20083;-75
2023/05/17 02:01:15;;;;;;;4.30;0.43;;;10.20;99.90;;;8.96;84.36;101250.69;5005565;28;20060;-76
2023/05/17 02:03:41;;;;;;;1.25;0.57;;;10.30;99.90;;;8.99;84.59;101252.34;4996733;28;20065;-75
2023/05/17 02:06:07;;;;;;;1.02;0.65;;;10.30;99.90;;;9.00;83.76;101249.66;5019848;28;20052;-75
2023/05/17 02:08:33;;;;;;;4.35;0.95;;;10.30;99.90;;;9.00;83.68;101247.03;5014091;28;20037;-75
2023/05/17 02:10:59;;;;;;;3.90;0.85;;;10.30;99.90;;;9.01;83.90;101240.88;5033925;28;20026;-75
2023/05/17 02:13:24;;;;;;;0.30;0.30;;;10.30;99.90;;;8.99;83.56;101240.06;4991114;28;20036;-75
2023/05/17 02:15:50;;;;;;;0.93;0.30;;;10.20;99.90;;;8.91;84.00;101241.22;4997063;28;20049;-75
2023/05/17 02:18:16;;;;;;;0.28;0.22;;;10.20;99.90;;;8.84;83.64;101243.19;4998196;28;20034;-77
2023/05/17 02:20:42;;;;;;;1.05;0.40;;;10.10;99.90;;;8.67;83.74;101246.31;4981615;28;20041;-75
2023/05/17 02:23:08;;;;;;;1.08;0.43;;;10.00;99.90;;;8.55;82.93;101239.69;4996447;28;20041;-75
2023/05/17 02:25:33;;;;;;;0.65;0.32;;;9.90;99.90;;;8.41;83.01;101241.84;4997941;28;20034;-76
2023/05/17 02:27:59;;;;;;;0.17;0.15;;;9.80;99.90;;;8.31;83.32;101241.22;4997818;28;20034;-76
2023/05/17 02:30:25;;;;;;;1.27;1.02;;;9.70;99.90;;;8.18;83.23;101243.34;4999424;28;20034;-76
2023/05/17 02:32:51;;;;;;;0.82;0.40;;;9.50;99.90;;;8.04;83.87;101229.78;5012676;22;20153;-77
2023/05/17 02:35:17;;;;;;;0.80;0.30;;;9.40;99.90;;;7.92;83.92;101236.19;4986663;28;20104;-76
2023/05/17 02:37:46;;;;;;;5.28;0.47;;;9.30;99.90;;;7.85;83.84;101242.53;5025446;28;20030;-76
2023/05/17 02:40:12;;;;;;;4.85;0.60;;;9.20;99.90;;;7.64;84.86;101238.69;4979759;28;20479;-76
2023/05/17 02:42:38;;;;;;;6.72;1.30;;;9.10;99.90;;;7.56;85.72;101243.31;4995220;28;20041;-76
2023/05/17 02:45:04;;;;;;;3.90;0.30;;;9.00;99.90;;;7.53;85.54;101244.22;4986763;28;20042;-76
2023/05/17 02:47:30;;;;;;;0.40;0.30;;;8.90;99.90;;;7.45;85.68;101240.06;4990983;28;20069;-76
2023/05/17 02:49:56;;;;;;;1.95;0.30;;;8.90;99.90;;;7.39;85.40;101246.34;4991409;28;20031;-76
2023/05/17 02:52:22;;;;;;;1.52;0.40;;;8.80;99.90;;;7.33;85.16;101243.88;4987480;28;20036;-77
2023/05/17 02:54:47;;;;;;;0.47;0.47;;;8.70;99.90;;;7.31;84.97;101250.91;4975422;28;20552;-77
2023/05/17 02:57:13;;;;;;;4.68;0.20;;;8.70;99.90;;;7.19;85.52;101250.31;4992618;28;20034;-76
2023/05/17 02:59:41;;;;;;;0.32;0.10;;;8.60;99.90;;;7.14;85.02;101246.94;4988910;28;20033;-76
2023/05/17 03:02:07;;;;;;;1.00;0.17;;;8.60;99.90;;;7.08;85.51;101260.16;4987886;28;20056;-77
2023/05/17 03:04:33;;;;;;;0.50;0.20;;;8.50;99.90;;;7.03;85.02;101259.44;4988879;28;20057;-76
2023/05/17 03:06:59;;;;;;;2.45;0.57;;;8.90;99.90;;;7.05;84.80;101265.50;4982405;28;20116;-76
2023/05/17 03:09:25;;;;;;;0.25;0.20;;;8.50;99.90;;;7.04;84.32;101269.03;4990214;28;20070;-77
2023/05/17 03:11:50;;;;;;;5.90;0.47;;;8.40;99.90;;;6.96;84.33;101270.94;5005500;28;21537;-76
2023/05/17 03:14:16;;;;;;;0.68;0.38;;;8.40;99.90;;;6.92;83.61;101264.91;4992939;28;20029;-77
2023/05/17 03:16:42;;;;;;;1.40;0.32;;;8.40;99.90;;;6.88;83.33;101273.72;4990219;28;20561;-76
2023/05/17 03:19:08;;;;;;;0.00;0.00;;;8.30;99.90;;;6.88;83.09;101275.50;4993189;28;20029;-76
2023/05/17 03:21:33;;;;;;;0.43;0.20;;;8.20;99.90;;;6.85;83.15;101275.56;4990882;28;20121;-76
2023/05/17 03:23:59;;;;;;;0.25;0.10;;;8.20;99.90;;;6.76;83.29;101269.63;4990486;28;20105;-76
2023/05/17 03:26:26;;;;;;;0.20;0.17;;;8.20;99.90;;;6.74;83.55;101275.81;4993978;28;20192;-76
2023/05/17 03:28:52;;;;;;;0.00;0.00;;;8.20;99.90;;;6.69;83.36;101273.25;4981362;28;20740;-76
2023/05/17 03:31:18;;;;;;;1.17;0.50;;;8.20;99.90;;;6.73;82.25;101282.78;4989635;28;20030;-75
2023/05/17 03:33:44;;;;;;;0.75;0.45;;;8.20;99.90;;;6.85;81.67;101289.50;4992220;28;20631;-76
2023/05/17 03:36:10;;;;;;;1.55;1.00;;;8.20;99.90;;;6.91;81.71;101284.16;4984233;28;20056;-75
2023/05/17 03:38:36;;;;;;;0.15;0.05;;;8.30;99.90;;;7.03;80.45;101298.69;4988155;28;20030;-76
2023/05/17 03:41:02;;;;;;;0.20;0.03;;;8.40;99.90;;;7.14;79.85;101296.69;4968793;28;20119;-76
2023/05/17 03:43:28;;;;;;;0.13;0.00;;;8.40;99.90;;;7.14;79.47;101308.94;4990071;28;20033;-76
2023/05/17 03:45:54;;;;;;;1.27;0.45;;;8.40;99.90;;;7.28;78.95;101321.69;5000675;28;20510;-76
2023/05/17 03:48:20;;;;;;;0.00;0.00;;;8.50;99.90;;;7.39;78.78;101330.19;4992367;28;20041;-77
2023/05/17 03:50:46;;;;;;;0.08;0.08;;;8.60;99.90;;;7.52;78.51;101333.38;4993550;28;20040;-76
2023/05/17 03:53:13;;;;;;;1.27;0.28;;;8.70;99.90;;;7.65;78.14;101336.56;4995862;28;20041;-76
2023/05/17 03:55:38;;;;;;;0.35;0.05;;;8.90;99.90;;;7.87;77.80;101345.59;4991396;28;20038;-76
2023/05/17 03:58:06;;;;;;;2.83;0.70;;;9.60;99.90;;;8.66;75.78;101356.63;4995561;28;20034;-76
2023/05/17 04:00:32;;;;;;;0.20;0.20;;;10.60;99.90;;;9.83;73.29;101374.94;4991543;28;20029;-76
2023/05/17 04:02:58;;;;;;;1.63;0.20;;;11.50;99.90;;;10.62;69.13;101387.13;5014004;28;20045;-76
2023/05/17 04:05:23;;;;;;;2.08;1.13;;;12.30;99.90;;;11.25;66.19;101394.44;4984770;28;20046;-76
2023/05/17 04:07:49;;;;;;;0.00;0.00;;;12.90;99.90;;;11.80;63.49;101394.03;4990158;28;20723;-77
2023/05/17 04:10:15;;;;;;;4.68;0.65;;;13.40;99.90;;;12.28;62.17;101403.47;4993300;28;20120;-76
2023/05/17 04:12:41;;;;;;;0.52;0.10;;;13.80;99.90;;;12.82;59.79;101419.63;4990545;28;20149;-76
2023/05/17 04:15:08;;;;;;;1.45;0.20;;;14.20;99.90;;;12.90;58.26;101422.78;4991516;28;20475;-76
2023/05/17 04:17:34;;;;;;;0.82;0.10;;;14.40;99.90;;;13.16;57.39;101426.88;4993891;28;20029;-76
2023/05/17 04:20:00;;;;;;;0.00;0.00;;;14.60;99.90;;;13.34;56.22;101418.09;4991959;28;20099;-76
2023/05/17 04:22:25;;;;;;;0.03;0.03;;;14.80;99.10;;;13.59;55.16;101443.41;4990922;28;20030;-76
2023/05/17 04:24:51;;;;;;;0.20;0.03;;;14.80;99.80;;;13.93;54.46;101453.22;4989611;28;20454;-76
2023/05/17 04:27:17;;;;;;;0.13;0.10;;;15.20;98.30;;;14.51;53.03;101461.81;4993531;28;20133;-77
2023/05/17 04:29:43;;;;;;;0.20;0.15;;;15.60;98.20;;;15.34;51.51;101471.56;4999188;28;20042;-77
2023/05/17 04:32:09;;;;;;;0.55;0.20;;;16.20;97.80;;;16.55;50.30;101498.38;4982292;28;20041;-76
2023/05/17 04:34:36;;;;;;;0.20;0.20;;;16.90;97.00;;;17.57;48.50;101511.63;5005248;28;20065;-76
2023/05/17 04:37:02;;;;;;;1.10;0.35;;;17.60;96.90;;;18.60;47.57;101520.91;4992687;28;20034;-76
2023/05/17 04:39:28;;;;;;;0.10;0.03;;;18.20;95.20;;;19.31;45.48;101529.41;4982178;28;20053;-77
2023/05/17 04:41:54;;;;;;;1.73;0.15;;;18.80;94.20;;;19.89;44.48;101537.72;4994237;28;20030;-76
2023/05/17 04:44:19;;;;;;;;;;;18.80;96.20;;;19.58;42.17;101531.06;4967489;28;20578;-76
2023/05/17 04:46:45;;;;;;;1.00;0.20;;;19.40;93.40;;;20.72;43.13;101560.16;4984334;28;19926;-77
2023/05/17 04:49:11;;;;;;;;;;;19.50;95.20;;;21.25;40.66;101564.03;4975520;28;20482;-76
2023/05/17 04:51:37;;;;;;;2.28;0.73;;;20.00;91.00;;;20.43;40.80;101557.81;4991091;28;19938;-76
2023/05/17 04:54:05;;;;;;;6.68;0.30;;;19.70;90.80;;;20.36;42.22;101573.47;4991275;28;20038;-76
2023/05/17 04:56:33;;;;;;;0.08;0.00;;;19.50;90.60;;;19.92;41.59;101572.28;4994387;28;20037;-76
2023/05/17 04:58:58;;;;;;;0.63;0.30;;;19.40;90.20;;;20.08;40.73;101577.34;4988309;28;20374;-77
2023/05/17 05:01:24;;;;;;;1.77;0.40;;;19.70;91.20;;;21.31;40.64;101601.03;4988429;28;20034;-78
2023/05/17 05:03:50;;;;;;;0.65;0.52;;;19.50;90.40;;;20.04;41.42;101590.09;4975869;28;20049;-76
2023/05/17 05:06:16;;;;;;;5.47;0.57;;;19.40;89.10;;;19.97;40.47;101598.66;5006408;28;20044;-76
2023/05/17 05:08:42;;;;;;;;;;;19.40;91.70;;;20.62;38.39;101616.19;4991460;28;20044;-76
2023/05/17 05:11:07;;;;;;;1.45;0.25;;;19.70;90.10;;;21.52;38.73;101639.72;4992088;28;20293;-76
2023/05/17 05:13:33;;;;;;;;;;;19.90;90.20;;;22.44;37.60;101662.69;4990198;28;20034;-77
2023/05/17 05:15:59;;;;;;;3.20;0.38;;;20.30;88.40;;;20.48;39.24;101620.72;4994683;28;19920;-77
2023/05/17 05:18:25;;;;;;;;;;;20.10;91.50;;;18.35;41.37;101592.84;4985023;28;20038;-76
2023/05/17 05:20:51;;;;;;;0.43;0.20;;;18.40;91.30;;;16.68;45.30;101569.44;5001771;28;19999;-77
2023/05/17 05:23:17;;;;;;;;;;;18.30;94.00;;;15.96;45.71;101548.72;4989237;28;20033;-77
2023/05/17 05:25:46;;;;;;;0.03;0.03;;;16.50;93.60;;;14.85;48.68;101537.84;4992321;28;19921;-75
2023/05/17 05:28:12;;;;;;;1.17;0.35;;;15.60;94.60;;;13.68;51.53;101530.28;4981876;28;20077;-74
2023/05/17 05:30:38;;;;;;;3.70;0.10;;;14.90;95.80;;;12.95;53.15;101512.44;4990235;28;20777;-74
2023/05/17 05:33:04;;;;;;;3.05;0.50;;;14.20;96.80;;;12.55;54.69;101524.72;4988071;28;20051;-74
2023/05/17 05:35:30;;;;;;;0.20;0.10;;;13.80;97.80;;;12.33;55.41;101530.88;4979629;28;20558;-74
2023/05/17 05:37:57;;;;;;;2.33;0.28;;;13.50;98.60;;;12.08;56.13;101536.31;4991262;28;20038;-74
2023/05/17 05:40:23;;;;;;;6.50;0.28;;;13.10;99.00;;;11.68;56.56;101532.56;4994929;28;20129;-74
2023/05/17 05:42:48;;;;;;;0.30;0.20;;;12.90;99.40;;;11.55;56.63;101536.59;4992416;28;20109;-74
2023/05/17 05:45:15;;;;;;;0.10;0.10;;;12.70;99.90;;;11.34;57.99;101532.97;4988626;28;20041;-74
2023/05/17 05:47:40;;;;;;;1.20;0.10;;;12.50;99.90;;;10.88;58.35;101541.63;4980919;28;20046;-74
2023/05/17 05:50:08;;;;;;;0.85;0.17;;;12.20;99.90;;;10.75;58.52;101547.38;4985774;28;20494;-75
2023/05/17 05:52:34;;;;;;;0.75;0.63;;;12.10;99.90;;;10.54;59.40;101534.03;4992158;28;20570;-75
2023/05/17 05:55:00;;;;;;;0.20;0.20;;;12.00;99.90;;;11.07;58.44;101551.50;4972529;28;20037;-75
2023/05/17 05:57:25;;;;;;;1.13;0.45;;;12.10;99.90;;;10.97;59.08;101556.25;5004977;28;20064;-74
2023/05/17 05:59:51;;;;;;;0.80;0.13;;;12.20;99.90;;;11.68;58.58;101570.38;4988691;28;20088;-74
2023/05/17 06:02:18;;;;;;;0.00;0.00;;;12.30;99.90;;;11.67;57.45;101573.91;4989229;28;20606;-74
2023/05/17 06:04:47;;;;;;;0.52;0.20;;;12.90;99.90;;;13.85;54.59;101618.66;4997703;28;20396;-75
2023/05/17 06:07:13;;;;;;;0.03;0.00;;;13.10;99.20;;;12.33;54.04;101589.00;5009166;28;20045;-75
2023/05/17 06:09:40;;;;;;;5.07;0.57;;;13.30;99.30;;;13.16;53.46;101606.69;4990804;28;20459;-74
2023/05/17 06:12:06;;;;;;;0.03;0.03;;;14.30;99.70;;;16.87;48.90;101665.84;4969224;28;20237;-76
2023/05/17 06:14:34;;;;;;;0.75;0.20;;;15.90;97.80;;;17.55;45.91;101665.31;4972683;28;20689;-74
2023/05/17 06:17:00;;;;;;;0.10;0.10;;;16.50;95.90;;;15.97;48.48;101638.06;4978193;28;20034;-75
2023/05/17 06:19:26;;;;;;;1.08;0.30;;;16.20;94.40;;;14.83;48.65;101632.50;4972981;28;20033;-75
2023/05/17 06:21:52;;;;;;;;;;;16.10;96.20;;;13.64;50.51;101610.75;4965138;28;20077;-76
2023/05/17 06:24:17;;;;;;;1.75;0.70;;;14.80;96.20;;;13.23;52.24;101608.13;4976748;28;19934;-74
2023/05/17 06:26:43;;;;;;;;;;;14.70;97.40;;;12.83;52.56;101615.13;4988976;28;20093;-75
2023/05/17 06:29:09;;;;;;;1.23;0.30;;;14.00;96.80;;;12.66;53.50;101607.91;4992139;28;20544;-75
2023/05/17 06:31:35;;;;;;;0.20;0.13;;;13.80;96.70;;;12.51;52.98;101605.91;4986817;28;20034;-74
2023/05/17 06:34:01;;;;;;;0.65;0.20;;;13.60;97.20;;;12.52;52.85;101620.81;4990805;28;20053;-74
2023/05/17 06:36:27;;;;;;;;;;;13.60;98.40;;;12.24;53.31;101616.63;4993997;28;20056;-75
2023/05/17 06:38:53;;;;;;;0.00;0.00;;;13.30;96.50;;;11.90;52.79;101623.22;4990048;28;19920;-74
2023/05/17 06:41:19;;;;;;;5.07;0.22;;;13.20;96.40;;;12.26;52.53;101632.41;4988830;28;20057;-75
2023/05/17 06:43:45;;;;;;;0.00;0.00;;;13.20;96.40;;;13.30;51.43;101665.19;4989855;28;20050;-76
2023/05/17 06:46:12;;;;;;;1.40;0.88;;;14.00;96.30;;;15.09;47.87;101704.59;4989484;28;20057;-77
2023/05/17 06:48:38;;;;;;;0.05;0.05;;;15.30;94.50;;;16.85;44.36;101728.91;5005675;28;20482;-76
2023/05/17 06:51:03;;;;;;;0.13;0.10;;;16.50;94.60;;;16.98;44.63;101721.94;4985178;28;20107;-75
2023/05/17 06:53:31;;;;;;;;;;;16.50;95.30;;;17.60;42.15;101744.94;4988439;28;20498;-75
2023/05/17 06:55:57;;;;;;;2.85;0.08;;;17.10;91.20;;;15.79;44.02;101716.94;4990302;28;19921;-77
2023/05/17 06:58:23;;;;;;;0.57;0.10;;;16.60;91.50;;;15.32;44.60;101720.22;4990463;28;20912;-74
2023/05/17 07:00:49;;;;;;;;;;;16.50;92.40;;;15.84;43.97;101726.47;4984784;28;20073;-75
2023/05/17 07:03:15;;;;;;;0.82;0.25;;;16.40;92.50;;;15.56;45.40;101734.03;4990572;28;20592;-75
2023/05/17 07:05:41;;;;;;;0.30;0.20;;;16.30;92.60;;;15.62;46.20;101742.63;4983037;28;20042;-75
2023/05/17 07:08:07;;;;;;;0.65;0.30;;;16.20;93.00;;;14.98;46.89;101724.56;4991671;28;20045;-74
2023/05/17 07:10:32;;;;;;;;;;;16.10;94.30;;;14.91;47.42;101730.25;4991343;28;20034;-75
2023/05/17 07:12:59;;;;;;;0.65;0.55;;;15.90;93.80;;;15.38;46.52;101741.16;4992032;28;19913;-75
2023/05/17 07:15:24;;;;;;;2.10;0.13;;;15.80;93.40;;;14.63;47.62;101728.06;4991045;28;20125;-75
2023/05/17 07:17:50;;;;;;;0.08;0.08;;;15.40;93.00;;;13.68;48.66;101720.00;4989643;28;20512;-74
2023/05/17 07:20:16;;;;;;;11.88;3.33;;;14.90;94.10;;;13.23;49.81;101713.91;4991719;28;20492;-74
2023/05/17 07:22:42;;;;;;;1.02;0.38;;;14.50;94.80;;;12.85;51.16;101715.50;4995254;28;20046;-75
2023/05/17 07:25:08;;;;;;;;;;;14.40;95.60;;;12.20;50.82;101688.09;4992227;28;20050;-76
2023/05/17 07:27:34;;;;;;;0.10;0.10;;;13.60;94.60;;;11.94;51.26;101689.94;4995359;28;19921;-75
2023/05/17 07:30:03;;;;;;;;;;;13.50;95.50;;;11.70;52.06;101696.94;4996750;28;20274;-75
2023/05/17 07:32:29;;;;;;;0.73;0.05;;;13.00;96.30;;;11.43;53.26;101694.38;4997754;28;20008;-75
2023/05/17 07:34:55;;;;;;;0.10;0.10;;;12.80;96.90;;;11.29;53.89;101700.13;4993721;28;20037;-75
2023/05/17 07:37:20;;;;;;;0.08;0.08;;;12.70;97.50;;;11.53;54.89;101712.50;4993663;28;20521;-75
2023/05/17 07:39:46;;;;;;;4.85;0.90;;;12.70;97.40;;;11.65;54.25;101726.13;4997740;28;20033;-74
2023/05/17 07:42:12;;;;;;;0.82;0.10;;;12.70;97.40;;;11.63;53.68;101725.31;4988877;28;20139;-75
2023/05/17 07:44:38;;;;;;;;;;;12.70;97.90;;;11.40;53.14;101727.88;4992876;28;20046;-75
2023/05/17 07:47:04;;;;;;;0.00;0.00;;;12.70;96.60;;;12.27;53.06;101747.69;4997219;28;19913;-75
2023/05/17 07:49:31;;;;;;;1.40;0.30;;;13.10;97.00;;;12.55;51.61;101752.78;4995088;28;20491;-74
2023/05/17 07:51:57;;;;;;;4.55;0.13;;;13.30;96.70;;;12.38;51.71;101748.16;4985978;28;20099;-75
2023/05/17 07:54:26;;;;;;;0.20;0.20;;;13.20;96.10;;;11.87;52.31;101739.41;5001522;28;20045;-75
2023/05/17 07:56:54;;;;;;;4.25;0.88;;;13.10;97.40;;;11.88;54.30;101742.97;4994758;28;20033;-74
2023/05/17 07:59:21;;;;;;;0.93;0.28;;;13.10;96.90;;;12.02;53.10;101747.72;4989215;28;20048;-74
2023/05/17 08:01:47;;;;;;;2.35;0.30;;;13.10;97.10;;;12.13;53.28;101744.69;4991254;28;20190;-74
2023/05/17 08:04:13;;;;;;;0.10;0.03;;;13.00;95.30;;;11.64;51.83;101736.72;4984423;28;20121;-75
2023/05/17 08:06:40;;;;;;;0.03;0.00;;;13.10;96.10;;;12.21;51.11;101761.13;4985337;28;20426;-75
2023/05/17 08:09:06;;;;;;;0.47;0.47;;;13.30;96.20;;;12.77;50.81;101766.03;4993723;28;20038;-75
2023/05/17 08:11:33;;;;;;;0.05;0.05;;;13.50;95.80;;;12.70;50.33;101761.91;4991174;28;20186;-75
2023/05/17 08:14:00;;;;;;;0.03;0.03;;;13.60;95.90;;;12.78;50.54;101777.44;4994699;28;20025;-76
2023/05/17 08:16:27;;;;;;;0.08;0.05;;;13.90;95.40;;;13.80;49.16;101806.81;4990335;28;20830;-75
2023/05/17 08:18:52;;;;;;;0.45;0.40;;;14.50;94.20;;;14.64;47.05;101825.19;4991501;28;20030;-74
2023/05/17 08:21:19;;;;;;;3.47;1.00;;;15.20;93.50;;;14.97;46.05;101834.22;4990653;28;20118;-76
2023/05/17 08:23:45;;;;;;;0.43;0.13;;;15.30;93.60;;;14.27;47.09;101811.78;4989684;28;20057;-74
2023/05/17 08:26:11;;;;;;;0.52;0.30;;;15.10;92.40;;;13.64;47.23;101811.88;4990310;28;20100;-74
2023/05/17 08:28:38;;;;;;;2.72;1.33;;;14.60;93.20;;;13.11;48.29;101799.06;4990540;28;20033;-75
2023/05/17 08:31:05;;;;;;;2.90;0.47;;;14.20;94.00;;;12.62;49.98;101785.13;4992547;28;20045;-75
2023/05/17 08:33:31;;;;;;;0.20;0.20;;;13.90;95.00;;;12.45;51.92;101789.25;4981189;28;20061;-75
2023/05/17 08:36:00;;;;;;;0.30;0.10;;;13.80;95.50;;;12.65;51.24;101791.13;4993608;28;20766;-74
2023/05/17 08:38:26;;;;;;;0.90;0.52;;;13.90;95.20;;;13.07;49.90;101800.97;4993154;28;20069;-75
2023/05/17 08:40:58;;;;;;;1.88;0.68;;;13.70;93.40;;;12.33;49.40;101797.63;4992419;28;20027;-75
2023/05/17 08:43:25;;;;;;;0.00;0.00;;;13.60;94.50;;;12.59;50.09;101801.06;5001415;28;20072;-75
2023/05/17 08:45:51;;;;;;;9.18;2.08;;;13.80;93.80;;;13.12;49.05;101827.22;4990361;28;20049;-75
2023/05/17 08:48:20;;;;;;;0.20;0.20;;;14.00;94.10;;;13.19;48.96;101825.19;4990123;28;20038;-75
2023/05/17 08:50:49;;;;;;;0.55;0.52;;;14.30;94.30;;;13.62;48.12;101842.84;4991020;28;20049;-76
2023/05/17 08:53:16;;;;;;;0.00;0.00;;;14.60;94.30;;;14.13;48.11;101849.50;4991095;28;20487;-75
2023/05/17 08:55:48;;;;;;;1.35;0.43;;;14.90;93.70;;;14.20;47.25;101851.88;4993116;28;20121;-75
2023/05/17 08:58:23;;;;;;;0.70;0.52;;;14.80;92.10;;;13.48;46.77;101839.94;4989731;28;20728;-75
2023/05/17 09:00:51;;;;;;;0.10;0.10;;;14.40;91.90;;;12.75;47.67;101838.38;4993331;28;20049;-76
2023/05/17 09:03:18;;;;;;;0.20;0.10;;;13.90;91.50;;;12.24;47.62;101832.28;4987246;28;20177;-74
2023/05/17 09:05:45;;;;;;;2.67;1.20;;;13.80;93.20;;;12.74;48.21;101840.13;4991814;28;20432;-76
2023/05/17 09:08:12;;;;;;;0.98;0.30;;;14.00;94.00;;;13.39;48.24;101851.75;4993469;28;20038;-74
2023/05/17 09:10:44;;;;;;;12.07;0.55;;;14.40;93.90;;;13.78;47.78;101868.66;4997609;28;20080;-76
2023/05/17 09:13:11;;;;;;;0.30;0.30;;;14.40;92.80;;;13.36;47.05;101849.22;4991139;28;20051;-75
2023/05/17 09:15:43;;;;;;;0.10;0.10;;;14.30;93.30;;;13.13;48.35;101843.03;4975056;28;20563;-74
2023/05/17 09:18:13;;;;;;;1.85;0.38;;;14.10;93.40;;;12.82;48.55;101832.78;5006556;28;20502;-76
2023/05/17 09:20:50;;;;;;;2.22;0.40;;;14.00;94.80;;;12.97;49.82;101851.63;4995763;28;20068;-75
2023/05/17 09:23:26;;;;;;;1.02;0.57;;;14.10;94.90;;;13.38;49.98;101863.25;4983565;28;20039;-74
2023/05/17 09:25:52;;;;;;;0.10;0.10;;;14.40;94.70;;;13.85;48.74;101880.75;4988537;28;20043;-74
2023/05/17 09:28:19;;;;;;;0.75;0.20;;;14.60;94.10;;;13.96;48.16;101883.78;4996014;28;20050;-74
2023/05/17 09:30:48;;;;;;;1.98;0.52;;;14.80;94.00;;;14.21;48.11;101888.03;4987709;28;20046;-75
2023/05/17 09:33:14;;;;;;;0.10;0.10;;;15.00;94.40;;;14.70;47.74;101888.53;4991736;28;20052;-74
2023/05/17 09:35:43;;;;;;;0.15;0.15;;;15.30;93.10;;;14.59;46.82;101898.78;4993280;28;20107;-74
2023/05/17 09:38:13;;;;;;;0.05;0.05;;;15.10;91.60;;;13.70;46.62;101875.16;4993033;28;20041;-75
2023/05/17 09:40:50;;;;;;;0.22;0.17;;;14.80;93.00;;;13.29;48.56;101872.41;4992182;28;20045;-75
2023/05/17 09:43:25;;;;;;;0.65;0.13;;;14.40;92.40;;;13.00;48.26;101862.06;4981486;28;20030;-75
2023/05/17 09:45:58;;;;;;;0.10;0.10;;;14.30;93.50;;;13.24;48.93;101876.09;4995282;28;20049;-75
2023/05/17 09:48:26;;;;;;;1.10;0.20;;;14.50;95.00;;;14.04;49.26;101891.41;4996471;28;20526;-75
2023/05/17 09:50:53;;;;;;;0.00;0.00;;;14.80;93.80;;;14.32;47.67;101904.34;4994441;28;20040;-75
2023/05/17 09:53:38;;;;;;;1.35;0.20;;;15.00;93.90;;;14.33;47.68;101904.25;4995322;28;20037;-76
2023/05/17 09:56:06;;;;;;;2.28;0.30;;;15.00;92.70;;;14.02;47.70;101893.28;4994369;28;20053;-76
2023/05/17 09:58:37;;;;;;;1.75;0.20;;;15.10;94.80;;;14.49;48.63;101899.16;4994207;28;20117;-75
2023/05/17 10:01:06;;;;;;;0.70;0.10;;;15.10;93.40;;;14.10;47.94;101891.13;4992756;28;20038;-76
2023/05/17 10:03:41;;;;;;;0.68;0.30;;;15.10;94.70;;;14.25;48.89;101898.41;4988408;28;20045;-76
2023/05/17 10:06:11;;;;;;;0.52;0.15;;;15.10;93.40;;;13.96;48.27;101881.16;4993101;28;20046;-75
2023/05/17 10:08:42;;;;;;;1.02;0.35;;;15.00;93.90;;;13.82;48.76;101875.56;4982098;28;20108;-76
2023/05/17 10:11:10;;;;;;;0.00;0.00;;;14.90;93.60;;;13.95;48.02;101884.69;4991198;28;20045;-76
2023/05/17 10:13:57;;;;;;;0.08;0.00;;;15.10;94.60;;;14.45;48.45;101889.63;4992796;28;20037;-76
2023/05/17 10:16:26;;;;;;;;;;;15.20;94.40;;;14.17;46.62;101892.63;4985424;28;20041;-77
2023/05/17 10:18:56;;;;;;;0.63;0.10;;;15.10;93.10;;;14.05;47.75;101893.13;4991865;28;19913;-76
2023/05/17 10:21:22;;;;;;;0.20;0.10;;;15.00;92.70;;;13.85;47.52;101904.56;4994375;28;20053;-75